createdAt,value
2022-10-09T00:01:30.240Z,12.50
2022-10-09T00:03:58.484Z,12.50
2022-10-09T00:06:31.588Z,12.50
2022-10-09T00:09:05.998Z,12.50
2022-10-09T00:11:38.729Z,12.40
2022-10-09T00:14:15.148Z,12.40
2022-10-09T00:17:06.749Z,12.40
2022-10-09T00:19:36.814Z,12.40
2022-10-09T00:22:06.804Z,12.40
2022-10-09T00:24:38.246Z,12.30
2022-10-09T00:27:07.959Z,12.30
2022-10-09T00:29:40.828Z,12.30
2022-10-09T00:32:20.926Z,12.30
2022-10-09T00:34:57.792Z,12.20
2022-10-09T00:37:34.857Z,12.20
2022-10-09T00:40:32.836Z,12.10
2022-10-09T00:43:02.550Z,12.10
2022-10-09T00:45:33.348Z,12.10
2022-10-09T00:48:13.501Z,12.00
2022-10-09T00:50:51.030Z,12.00
2022-10-09T00:53:28.225Z,12.00
2022-10-09T00:55:58.912Z,11.90
2022-10-09T00:58:26.558Z,11.90
2022-10-09T01:00:55.778Z,11.90
2022-10-09T01:03:29.569Z,11.90
2022-10-09T01:06:15.060Z,11.80
2022-10-09T01:09:06.038Z,11.80
2022-10-09T01:11:52.772Z,11.80
2022-10-09T01:14:36.340Z,11.90
2022-10-09T01:17:33.337Z,11.80
2022-10-09T01:20:39.920Z,11.80
2022-10-09T01:23:22.027Z,11.80
2022-10-09T01:26:30.769Z,11.70
2022-10-09T01:29:16.560Z,11.70
2022-10-09T01:31:53.497Z,11.60
2022-10-09T01:34:24.850Z,11.60
2022-10-09T01:36:55.290Z,11.50
2022-10-09T01:39:25.048Z,11.50
2022-10-09T01:41:58.449Z,11.50
2022-10-09T01:44:33.269Z,11.40
2022-10-09T01:47:02.915Z,11.40
2022-10-09T01:49:53.211Z,11.40
2022-10-09T01:52:48.020Z,11.30
2022-10-09T01:55:35.306Z,11.30
2022-10-09T01:58:23.623Z,11.30
2022-10-09T02:01:36.382Z,11.20
2022-10-09T02:04:15.857Z,11.20
2022-10-09T02:06:47.086Z,11.10
2022-10-09T02:09:17.058Z,11.20
2022-10-09T02:11:49.483Z,11.10
2022-10-09T02:14:22.584Z,11.10
2022-10-09T02:17:16.808Z,11.20
2022-10-09T02:19:57.050Z,11.10
2022-10-09T02:22:36.232Z,11.20
2022-10-09T02:25:19.028Z,11.20
2022-10-09T02:27:57.314Z,11.30
2022-10-09T02:30:27.520Z,11.20
2022-10-09T02:33:13.514Z,11.20
2022-10-09T02:35:46.565Z,11.30
2022-10-09T02:38:24.770Z,11.30
2022-10-09T02:40:55.897Z,11.20
2022-10-09T02:43:24.036Z,11.20
2022-10-09T02:45:52.314Z,11.30
2022-10-09T02:48:20.557Z,11.20
2022-10-09T02:51:01.240Z,11.20
2022-10-09T02:53:32.424Z,11.20
2022-10-09T02:56:00.629Z,11.30
2022-10-09T02:58:34.795Z,11.30
2022-10-09T03:01:03.530Z,11.20
2022-10-09T03:03:32.263Z,11.20
2022-10-09T03:06:11.209Z,11.20
2022-10-09T03:08:40.551Z,11.20
2022-10-09T03:11:19.773Z,11.10
2022-10-09T03:13:49.558Z,11.10
2022-10-09T03:16:31.143Z,11.10
2022-10-09T03:18:59.799Z,11.10
2022-10-09T03:21:29.707Z,11.10
2022-10-09T03:25:15.160Z,11.00
2022-10-09T03:27:08.590Z,11.00
2022-10-09T03:29:40.123Z,11.10
2022-10-09T03:32:10.687Z,11.00
2022-10-09T03:34:42.037Z,11.00
2022-10-09T03:37:11.212Z,11.00
2022-10-09T03:39:45.003Z,10.90
2022-10-09T03:42:11.941Z,10.90
2022-10-09T03:44:40.235Z,10.90
2022-10-09T03:47:09.238Z,10.80
2022-10-09T03:50:02.613Z,10.80
2022-10-09T03:52:34.837Z,10.90
2022-10-09T03:55:04.263Z,10.80
2022-10-09T03:57:43.030Z,10.80
2022-10-09T04:00:14.577Z,10.70
2022-10-09T04:02:47.049Z,10.80
2022-10-09T04:05:23.219Z,10.70
2022-10-09T04:07:57.864Z,10.70
2022-10-09T04:10:39.759Z,10.60
2022-10-09T04:13:34.562Z,10.60
2022-10-09T04:16:12.823Z,10.50
2022-10-09T04:18:50.888Z,10.40
2022-10-09T04:21:20.550Z,10.40
2022-10-09T04:23:48.664Z,10.40
2022-10-09T04:26:15.400Z,10.40
2022-10-09T04:28:55.327Z,10.40
2022-10-09T04:31:32.413Z,10.40
2022-10-09T04:34:16.794Z,10.40
2022-10-09T04:36:53.288Z,10.30
2022-10-09T04:39:32.578Z,10.40
2022-10-09T04:42:00.883Z,10.40
2022-10-09T04:44:33.380Z,10.40
2022-10-09T04:47:00.336Z,10.40
2022-10-09T04:49:27.500Z,10.40
2022-10-09T04:51:56.522Z,10.40
2022-10-09T04:54:35.168Z,10.40
2022-10-09T04:57:16.686Z,10.40
2022-10-09T04:59:43.681Z,10.40
2022-10-09T05:02:20.902Z,10.40
2022-10-09T05:04:56.772Z,10.40
2022-10-09T05:07:35.992Z,10.40
2022-10-09T05:10:06.293Z,10.40
2022-10-09T05:12:34.615Z,10.40
2022-10-09T05:15:10.398Z,10.40
2022-10-09T05:18:22.384Z,10.40
2022-10-09T05:20:55.096Z,10.30
2022-10-09T05:23:28.296Z,10.40
2022-10-09T05:26:14.634Z,10.40
2022-10-09T05:28:46.451Z,10.40
2022-10-09T05:31:49.616Z,10.30
2022-10-09T05:34:26.119Z,10.30
2022-10-09T05:36:56.091Z,10.40
2022-10-09T05:39:42.669Z,10.40
2022-10-09T05:42:16.290Z,10.30
2022-10-09T05:47:24.705Z,10.40
2022-10-09T05:49:53.068Z,10.40
2022-10-09T05:52:26.535Z,10.40
2022-10-09T05:55:04.846Z,10.40
2022-10-09T05:57:34.689Z,10.40
2022-10-09T06:00:13.172Z,10.40
2022-10-09T06:02:44.737Z,10.40
2022-10-09T06:05:24.950Z,10.40
2022-10-09T06:08:04.395Z,10.40
2022-10-09T06:10:38.476Z,10.40
2022-10-09T06:13:15.272Z,10.40
2022-10-09T06:15:56.211Z,10.40
2022-10-09T06:18:34.319Z,10.40
2022-10-09T06:21:07.573Z,10.40
2022-10-09T06:23:44.860Z,10.40
2022-10-09T06:26:13.592Z,10.40
2022-10-09T06:29:07.249Z,10.30
2022-10-09T06:31:53.615Z,10.30
2022-10-09T06:34:30.961Z,10.30
2022-10-09T06:37:11.615Z,10.30
2022-10-09T06:39:41.035Z,10.30
2022-10-09T06:42:12.986Z,10.30
2022-10-09T06:44:44.828Z,10.30
2022-10-09T06:47:19.414Z,10.30
2022-10-09T06:50:03.693Z,10.30
2022-10-09T06:52:45.261Z,10.30
2022-10-09T06:55:27.951Z,10.30
2022-10-09T06:58:04.845Z,10.40
2022-10-09T07:00:42.574Z,10.40
2022-10-09T07:06:05.109Z,10.30
2022-10-09T07:08:47.270Z,10.30
2022-10-09T07:11:50.372Z,10.30
2022-10-09T07:17:15.299Z,10.40
2022-10-09T07:19:54.194Z,10.50
2022-10-09T07:22:31.144Z,10.50
2022-10-09T07:25:00.548Z,10.50
2022-10-09T07:27:44.826Z,10.50
2022-10-09T07:30:18.813Z,10.60
2022-10-09T07:32:52.349Z,10.50
2022-10-09T07:35:20.445Z,10.60
2022-10-09T07:37:48.271Z,10.60
2022-10-09T07:40:19.985Z,10.70
2022-10-09T07:42:47.051Z,10.70
2022-10-09T07:45:17.241Z,10.80
2022-10-09T07:47:54.814Z,10.80
2022-10-09T07:50:28.508Z,10.90
2022-10-09T07:53:06.384Z,10.90
2022-10-09T07:55:37.488Z,10.90
2022-10-09T07:58:23.920Z,10.80
2022-10-09T08:00:54.185Z,10.90
2022-10-09T08:03:25.489Z,10.80
2022-10-09T08:06:21.969Z,10.80
2022-10-09T08:08:57.572Z,10.80
2022-10-09T08:11:25.915Z,10.70
2022-10-09T08:13:53.758Z,10.70
2022-10-09T08:16:22.306Z,10.80
2022-10-09T08:18:49.283Z,10.90
2022-10-09T08:21:18.965Z,10.90
2022-10-09T08:23:46.164Z,10.90
2022-10-09T08:26:18.775Z,11.00
2022-10-09T08:28:54.253Z,11.00
2022-10-09T08:31:27.675Z,11.20
2022-10-09T08:34:00.166Z,11.30
2022-10-09T08:36:28.883Z,11.40
2022-10-09T08:38:56.235Z,11.30
2022-10-09T08:41:34.702Z,11.40
2022-10-09T08:44:22.305Z,11.40
2022-10-09T08:47:09.117Z,11.40
2022-10-09T08:49:43.619Z,11.40
2022-10-09T08:52:20.155Z,11.50
2022-10-09T08:54:50.113Z,11.50
2022-10-09T08:57:18.318Z,11.60
2022-10-09T08:59:46.673Z,11.60
2022-10-09T09:02:27.589Z,11.60
2022-10-09T09:05:31.180Z,11.60
2022-10-09T09:08:52.509Z,11.60
2022-10-09T09:11:21.632Z,11.60
2022-10-09T09:17:36.726Z,11.50
2022-10-09T09:20:11.169Z,11.50
2022-10-09T09:22:42.990Z,11.50
2022-10-09T09:25:35.567Z,11.40
2022-10-09T09:28:41.551Z,11.40
2022-10-09T09:31:37.217Z,11.40
2022-10-09T09:34:07.594Z,11.40
2022-10-09T09:42:52.521Z,11.40
2022-10-09T09:48:40.681Z,11.50
2022-10-09T09:51:30.353Z,11.50
2022-10-09T09:54:10.401Z,11.60
2022-10-09T09:57:20.976Z,11.70
2022-10-09T09:59:51.509Z,11.70
2022-10-09T10:02:37.035Z,11.70
2022-10-09T10:08:57.395Z,12.00
2022-10-09T10:11:38.272Z,12.00
2022-10-09T10:14:09.741Z,12.10
2022-10-09T10:17:00.335Z,12.30
2022-10-09T10:19:59.309Z,12.90
2022-10-09T10:22:38.833Z,13.10
2022-10-09T10:25:30.427Z,12.80
2022-10-09T10:28:25.418Z,12.70
2022-10-09T10:34:19.535Z,13.10
2022-10-09T10:37:27.513Z,13.50
2022-10-09T10:40:03.441Z,13.80
2022-10-09T10:43:04.946Z,14.10
2022-10-09T10:45:56.057Z,14.30
2022-10-09T10:48:44.672Z,14.20
2022-10-09T10:54:59.641Z,14.50
2022-10-09T10:58:07.715Z,14.40
2022-10-09T11:01:19.382Z,14.20
2022-10-09T11:04:00.310Z,14.40
2022-10-09T11:06:34.353Z,14.30
2022-10-09T11:09:33.416Z,14.40
2022-10-09T11:12:47.191Z,14.50
2022-10-09T11:15:45.496Z,14.60
2022-10-09T11:18:29.727Z,14.40
2022-10-09T11:21:38.252Z,14.50
2022-10-09T11:24:26.689Z,14.20
2022-10-09T11:27:07.392Z,13.90
2022-10-09T11:29:42.077Z,13.80
2022-10-09T11:32:20.509Z,13.90
2022-10-09T11:35:03.286Z,13.90
2022-10-09T11:37:35.214Z,13.70
2022-10-09T11:40:16.785Z,13.70
2022-10-09T11:42:48.578Z,13.60
2022-10-09T11:45:23.633Z,13.50
2022-10-09T11:48:06.649Z,13.30
2022-10-09T11:51:01.611Z,13.30
2022-10-09T11:53:31.431Z,13.10
2022-10-09T11:56:06.403Z,13.10
2022-10-09T11:58:33.711Z,13.20
2022-10-09T12:01:26.055Z,13.10
2022-10-09T12:04:43.493Z,13.20
2022-10-09T12:07:32.054Z,13.20
2022-10-09T12:10:19.967Z,13.20
2022-10-09T12:12:59.663Z,13.30
2022-10-09T12:15:50.550Z,13.30
2022-10-09T12:18:38.343Z,13.20
2022-10-09T12:21:08.955Z,13.00
2022-10-09T12:23:39.615Z,12.90
2022-10-09T12:26:12.699Z,12.90
2022-10-09T12:29:02.228Z,12.80
2022-10-09T12:31:41.205Z,12.80
2022-10-09T12:34:16.188Z,12.70
2022-10-09T12:36:43.135Z,12.80
2022-10-09T12:39:23.868Z,12.80
2022-10-09T12:41:57.408Z,12.90
2022-10-09T12:44:30.372Z,13.00
2022-10-09T12:47:13.128Z,13.00
2022-10-09T12:49:40.443Z,13.10
2022-10-09T12:52:15.514Z,13.00
2022-10-09T12:54:44.490Z,12.90
2022-10-09T12:57:16.401Z,12.80
2022-10-09T12:59:45.567Z,12.80
2022-10-09T13:02:17.254Z,12.80
2022-10-09T13:04:56.475Z,12.80
2022-10-09T13:07:27.246Z,12.90
2022-10-09T13:10:00.464Z,12.90
2022-10-09T13:12:28.894Z,12.90
2022-10-09T13:15:09.354Z,13.00
2022-10-09T13:17:38.219Z,13.10
2022-10-09T13:20:25.578Z,13.10
2022-10-09T13:23:06.878Z,13.10
2022-10-09T13:25:37.487Z,12.90
2022-10-09T13:28:05.439Z,12.90
2022-10-09T13:30:33.277Z,12.90
2022-10-09T13:33:00.161Z,12.90
2022-10-09T13:35:26.972Z,12.90
2022-10-09T13:37:53.886Z,12.90
2022-10-09T13:40:22.055Z,12.90
2022-10-09T13:42:59.404Z,12.80
2022-10-09T13:45:26.324Z,12.80
2022-10-09T13:47:53.459Z,12.80
2022-10-09T13:50:20.805Z,12.80
2022-10-09T13:52:48.103Z,12.70
2022-10-09T13:55:15.343Z,12.70
2022-10-09T13:57:54.043Z,12.70
2022-10-09T14:00:22.493Z,12.70
2022-10-09T14:02:49.494Z,12.70
2022-10-09T14:05:21.706Z,12.70
2022-10-09T14:07:50.209Z,12.80
2022-10-09T14:10:21.711Z,12.90
2022-10-09T14:12:51.888Z,12.90
2022-10-09T14:15:19.060Z,12.90
2022-10-09T14:17:46.059Z,12.90
2022-10-09T14:20:13.187Z,13.00
2022-10-09T14:22:39.937Z,13.00
2022-10-09T14:25:07.447Z,12.90
2022-10-09T14:30:01.863Z,12.90
2022-10-09T14:32:31.515Z,12.90
2022-10-09T14:34:58.421Z,12.90
2022-10-09T14:37:40.526Z,12.90
2022-10-09T14:40:09.131Z,13.00
2022-10-09T14:42:38.504Z,12.90
2022-10-09T14:45:05.949Z,12.90
2022-10-09T14:47:32.831Z,12.80
2022-10-09T14:49:59.788Z,12.80
2022-10-09T14:52:26.651Z,12.70
2022-10-09T14:54:53.395Z,12.80
2022-10-09T14:57:20.213Z,12.70
2022-10-09T14:59:46.960Z,12.70
2022-10-09T15:02:15.984Z,12.60
2022-10-09T15:04:42.903Z,12.60
2022-10-09T15:07:12.624Z,12.50
2022-10-09T15:09:40.764Z,12.50
2022-10-09T15:12:07.581Z,12.50
2022-10-09T15:14:34.952Z,12.40
2022-10-09T15:17:02.076Z,12.40
2022-10-09T15:19:34.044Z,12.40
2022-10-09T15:22:03.744Z,12.40
2022-10-09T15:24:32.865Z,12.40
2022-10-09T15:26:59.824Z,12.30
2022-10-09T15:29:29.407Z,12.30
2022-10-09T15:32:02.301Z,12.30
2022-10-09T15:34:34.089Z,12.20
2022-10-09T15:37:02.552Z,12.20
2022-10-09T15:39:45.086Z,12.20
2022-10-09T15:42:15.621Z,12.10
2022-10-09T15:44:42.748Z,12.10
2022-10-09T15:47:09.613Z,12.10
2022-10-09T15:49:36.522Z,12.00
2022-10-09T15:52:03.850Z,11.90
2022-10-09T15:54:31.009Z,11.90
2022-10-09T15:57:00.373Z,11.70
2022-10-09T15:59:38.238Z,11.50
2022-10-09T16:02:05.099Z,11.40
2022-10-09T16:04:32.948Z,11.30
2022-10-09T16:07:01.186Z,11.20
2022-10-09T16:09:32.867Z,11.10
2022-10-09T16:12:00.179Z,10.90
2022-10-09T16:14:39.119Z,10.80
2022-10-09T16:17:10.976Z,10.60
2022-10-09T16:19:38.311Z,10.50
2022-10-09T16:22:06.080Z,10.40
2022-10-09T16:24:33.027Z,10.30
2022-10-09T16:27:00.076Z,10.20
2022-10-09T16:29:27.640Z,10.20
2022-10-09T16:31:56.224Z,10.10
2022-10-09T16:34:26.474Z,10.00
2022-10-09T16:36:53.283Z,9.90
2022-10-09T16:39:23.665Z,9.80
2022-10-09T16:41:53.057Z,9.80
2022-10-09T16:44:20.489Z,9.70
2022-10-09T16:46:48.130Z,9.60
